Saginaw, Washington
Current Conditions -  °F | °C
As of 8:53 PM on Sunday 19 Oct 2014 (Local Time) from KSHN Reporting Station
Light Rain Light Rain  
Wind Chill: 59°   Ceiling: 6000
Heat Index: 59°   Visibility: 8mi
Dew Point: 55°   Wind: 6mph
Humidity: 87%   Direction: 270°W
Pressure: 29.67"   Gusts: NA
Location:  46.9859°N, 123.385°W
Report Text: KSHN 200353Z AUTO 27005KT 8SM -RA OVC060 15/13 A2967 RMK AO2 RAB46 SLP048 P0000 T01500128 TSNO $
Loading
Personal Weather Stations






























Interactive Weather Map
Tropical Storm Tracking
New forecast layout! Learn more

10-Day Weather Forecast

Advertisements
Track Severe Weather on mobile